Schleswig Jagel, Germany

8:32 AM CEST on May 07, 2015 (GMT +0200)
Schleswig Air Base | | Change Station
CLOSE
Current Station
Airport
Location: Schleswig Jagel,
Elevation: 82 ft
Nearby Weather Stations

Elev 82 ft 54.46 °N, 9.52 °E | Updated 12 minutes ago

Mostly Cloudy
Mostly Cloudy
50 °F
Feels Like 50 °F
N
16
Wind Variable Wind from SW

Today
High -- | Low -- °F
--% Chance of Precip.
Yesterday
High -- | Low -- °F
Precip. -- in
5:32 AM 9:05 PM
Waning Gibbous, 90% visible
Pressure 29.80 in
Visibility 6.2 miles
Clouds Few 1000 ft
Mostly Cloudy 1500 ft
Mostly Cloudy 4000 ft
Dew Point 46 °F
Humidity 87%
Rainfall 0.00 in
Snow Depth Not available.
UV 1 out of 12
Pollen Not available.
Air Quality Not available.
Flu Activity Not available.
METAR ETNS 070620Z 23014KT 9999 FEW010 BKN015 BKN040 10/08 Q1009 WHT BLU TEMPO GRN

More Conditions Fewer Conditions

Pressure 29.80 in
Visibility 6.2 miles
Clouds Few 1000 ft
Mostly Cloudy 1500 ft
Mostly Cloudy 4000 ft
Dew Point 46 °F
Humidity 87%
Rainfall 0.00 in
Snow Depth Not available.
UV 1 out of 12
Pollen Not available.
Air Quality Not available.
Flu Activity Not available.
METAR ETNS 070620Z 23014KT 9999 FEW010 BKN015 BKN040 10/08 Q1009 WHT BLU TEMPO GRN

More Conditions Fewer Conditions

10-Day Weather Forecast

Almanac

Astronomy

May. 07, 2015 Rise Set
Actual Time
Civil Twilight
Nautical Twilight
Astronomical Twilight
Moon
Length of Visible Light
Length of Day
Tomorrow will be .
, % of the Moon is Illuminated

Today's Extremes

Country Highs Country Lows

Community

WunderPhotos

Upload Photos

1,819,126 photos uploaded!

WunderBlogs® & News

Nearby

Air Quality

  Air Quality AQ Index Pollutant
Not available.

Snow Depth

Station Depth Elevation

Earthquake Activity

City Distance Mag. Time & Date
Minimum magnitude displayed is 2.5.

Coastal Water Temperatures

Place Temperature

Stations

Nearby Weather Stations

Station Location Temp. Windchill Dew Point Humidity Wind Precip. Elev Updated Type